Observation data for Northwest San Angelo on 06/26/2019      Previous  Date  Next       Current Mesonet Observations  Soil Data  Daily Summary Page  Observations in Plain Language
KASU 260500Z 13006KT 23/18 A3005 RMK A01 T02280175  RH  076%=      5-min Rain = 0
KASU 260505Z 13005KT 23/18 A3005 RMK A01 T02270175  RH  077%=      5-min Rain = 0
KASU 260510Z 13006KT 23/18 A3005 RMK A01 T02250176  RH  077%=      5-min Rain = 0
KASU 260515Z 13006KT 22/18 A3005 RMK A01 T02240176  RH  078%=      5-min Rain = 0
KASU 260520Z 14008KT 23/18 A3005 RMK A01 T02270176  RH  076%=      5-min Rain = 0
KASU 260525Z 14009KT 23/17 A3005 RMK A01 T02320174  RH  074%=      5-min Rain = 0
KASU 260530Z 15009G14KT 24/17 A3005 RMK A01 T02350174  RH  072%=      5-min Rain = 0
KASU 260535Z 15009G14KT 24/17 A3005 RMK A01 T02370174  RH  071%=      5-min Rain = 0
KASU 260540Z 15007KT 24/17 A3005 RMK A01 T02350174  RH  072%=      5-min Rain = 0
KASU 260545Z 15006KT 23/17 A3005 RMK A01 T02340174  RH  073%=      5-min Rain = 0
KASU 260550Z 16006KT 23/17 A3005 RMK A01 T02320174  RH  074%=      5-min Rain = 0
KASU 260555Z 15007KT 23/17 A3006 RMK A01 T02320174  RH  074%=      5-min Rain = 0
KASU 260600Z 15009G15KT 24/18 A3006 RMK A01 T02350175  RH  073%=      5-min Rain = 0
KASU 260605Z 15009KT 24/18 A3006 RMK A01 T02350175  RH  073%=      5-min Rain = 0
KASU 260610Z 15009KT 23/18 A3006 RMK A01 T02340176  RH  073%=      5-min Rain = 0
KASU 260615Z 14008KT 23/18 A3005 RMK A01 T02320176  RH  074%=      5-min Rain = 0
KASU 260620Z 15008KT 23/18 A3005 RMK A01 T02310176  RH  075%=      5-min Rain = 0
KASU 260625Z 15009G14KT 23/18 A3005 RMK A01 T02320177  RH  075%=      5-min Rain = 0
KASU 260630Z 16009KT 23/18 A3005 RMK A01 T02320178  RH  075%=      5-min Rain = 0
KASU 260635Z 16009G14KT 23/18 A3005 RMK A01 T02330178  RH  075%=      5-min Rain = 0
KASU 260640Z 16009KT 23/18 A3005 RMK A01 T02330178  RH  075%=      5-min Rain = 0
KASU 260645Z 16009G14KT 23/18 A3005 RMK A01 T02330178  RH  075%=      5-min Rain = 0
KASU 260650Z 15009KT 23/18 A3005 RMK A01 T02320178  RH  076%=      5-min Rain = 0
KASU 260655Z 15008KT 23/18 A3005 RMK A01 T02300178  RH  076%=      5-min Rain = 0
KASU 260700Z 15007KT 23/18 A3006 RMK A01 T02290178  RH  077%=      5-min Rain = 0
KASU 260705Z 15007KT 23/18 A3006 RMK A01 T02280178  RH  077%=      5-min Rain = 0
KASU 260710Z 15006KT 23/18 A3006 RMK A01 T02270178  RH  077%=      5-min Rain = 0
KASU 260715Z 15005KT 23/18 A3006 RMK A01 T02260178  RH  078%=      5-min Rain = 0
KASU 260720Z 16004KT 23/18 A3007 RMK A01 T02250177  RH  079%=      5-min Rain = 0
KASU 260725Z 17003KT 22/18 A3007 RMK A01 T02230177  RH  079%=      5-min Rain = 0
KASU 260730Z 21003KT 22/18 A3007 RMK A01 T02240179  RH  080%=      5-min Rain = 0
KASU 260735Z 20003KT 22/18 A3007 RMK A01 T02240179  RH  080%=      5-min Rain = 0
KASU 260740Z 19003KT 22/18 A3008 RMK A01 T02230178  RH  079%=      5-min Rain = 0
KASU 260745Z 20003KT 22/18 A3008 RMK A01 T02220177  RH  080%=      5-min Rain = 0
KASU 260750Z 20004KT 22/18 A3007 RMK A01 T02230178  RH  080%=      5-min Rain = 0
KASU 260755Z 20004KT 22/18 A3007 RMK A01 T02220178  RH  080%=      5-min Rain = 0
KASU 260800Z 19003KT 22/18 A3006 RMK A01 T02200176  RH  080%=      5-min Rain = 0
KASU 260805Z 18004KT 22/18 A3006 RMK A01 T02160175  RH  082%=      5-min Rain = 0
KASU 260810Z 17004KT 21/18 A3005 RMK A01 T02140175  RH  083%=      5-min Rain = 0
KASU 260815Z 17003KT 21/18 A3005 RMK A01 T02130175  RH  083%=      5-min Rain = 0
KASU 260820Z 20002KT 21/18 A3006 RMK A01 T02120176  RH  084%=      5-min Rain = 0
KASU 260825Z 20002KT 21/18 A3006 RMK A01 T02120177  RH  084%=      5-min Rain = 0
KASU 260830Z 19003KT 21/18 A3006 RMK A01 T02140178  RH  084%=      5-min Rain = 0
KASU 260835Z 20002KT 21/18 A3006 RMK A01 T02130177  RH  084%=      5-min Rain = 0
KASU 260840Z 20002KT 21/18 A3006 RMK A01 T02130177  RH  084%=      5-min Rain = 0
KASU 260845Z 17002KT 21/18 A3006 RMK A01 T02110176  RH  084%=      5-min Rain = 0
KASU 260850Z 16002KT 21/18 A3006 RMK A01 T02100175  RH  085%=      5-min Rain = 0
KASU 260855Z 16003KT 21/17 A3005 RMK A01 T02080174  RH  085%=      5-min Rain = 0
KASU 260900Z 14005KT 21/17 A3005 RMK A01 T02050172  RH  085%=      5-min Rain = 0
KASU 260905Z 14007KT 21/17 A3004 RMK A01 T02050173  RH  086%=      5-min Rain = 0
KASU 260910Z 15005KT 21/17 A3004 RMK A01 T02050174  RH  087%=      5-min Rain = 0
KASU 260915Z 16003KT 21/18 A3004 RMK A01 T02050175  RH  087%=      5-min Rain = 0
KASU 260920Z 13001KT 21/18 A3004 RMK A01 T02060175  RH  087%=      5-min Rain = 0
KASU 260925Z 11001KT 21/18 A3005 RMK A01 T02050175  RH  087%=      5-min Rain = 0
KASU 260930Z 10002KT 20/17 A3004 RMK A01 T02030173  RH  087%=      5-min Rain = 0
KASU 260935Z 08001KT 20/17 A3005 RMK A01 T02040174  RH  087%=      5-min Rain = 0
KASU 260940Z 07000KT 20/17 A3005 RMK A01 T02040174  RH  088%=      5-min Rain = 0
KASU 260945Z 00000KT 20/17 A3005 RMK A01 T02010172  RH  088%=      5-min Rain = 0
KASU 260950Z 35000KT 20/17 A3004 RMK A01 T02030174  RH  088%=      5-min Rain = 0
KASU 260955Z 00000KT 20/18 A3004 RMK A01 T02030175  RH  088%=      5-min Rain = 0
KASU 261000Z 10000KT 20/17 A3004 RMK A01 T02010173  RH  088%=      5-min Rain = 0
KASU 261005Z 09002KT 20/17 A3004 RMK A01 T01980171  RH  088%=      5-min Rain = 0
KASU 261010Z 09002KT 20/17 A3004 RMK A01 T01960169  RH  088%=      5-min Rain = 0
KASU 261015Z 09003KT 20/17 A3005 RMK A01 T01950168  RH  089%=      5-min Rain = 0
KASU 261020Z 08002KT 20/17 A3005 RMK A01 T01960169  RH  089%=      5-min Rain = 0
KASU 261025Z 04001KT 20/17 A3005 RMK A01 T01980172  RH  089%=      5-min Rain = 0
KASU 261030Z 04001KT 20/17 A3005 RMK A01 T01980172  RH  089%=      5-min Rain = 0
KASU 261035Z 07002KT 20/17 A3005 RMK A01 T01970172  RH  089%=      5-min Rain = 0
KASU 261040Z 11002KT 20/17 A3004 RMK A01 T01970171  RH  090%=      5-min Rain = 0
KASU 261045Z 14002KT 20/17 A3004 RMK A01 T01980172  RH  090%=      5-min Rain = 0
KASU 261050Z 16003KT 20/17 A3004 RMK A01 T01970172  RH  090%=      5-min Rain = 0
KASU 261055Z 15004KT 20/17 A3004 RMK A01 T01960171  RH  090%=      5-min Rain = 0
KASU 261100Z 15004KT 20/17 A3004 RMK A01 T01960170  RH  090%=      5-min Rain = 0
KASU 261105Z 15004KT 20/17 A3004 RMK A01 T01960171  RH  090%=      5-min Rain = 0
KASU 261110Z 16004KT 20/17 A3004 RMK A01 T01970171  RH  090%=      5-min Rain = 0
KASU 261115Z 15004KT 20/17 A3005 RMK A01 T01960172  RH  090%=      5-min Rain = 0
KASU 261120Z 15005KT 20/17 A3005 RMK A01 T01970172  RH  090%=      5-min Rain = 0
KASU 261125Z 16004KT 20/17 A3005 RMK A01 T01970173  RH  090%=      5-min Rain = 0
KASU 261130Z 16004KT 20/17 A3005 RMK A01 T01980173  RH  090%=      5-min Rain = 0
KASU 261135Z 18005KT 20/17 A3005 RMK A01 T01990174  RH  090%=      5-min Rain = 0
KASU 261140Z 17005KT 20/17 A3005 RMK A01 T01990174  RH  090%=      5-min Rain = 0
KASU 261145Z 17005KT 20/17 A3005 RMK A01 T01990174  RH  090%=      5-min Rain = 0
KASU 261150Z 17006KT 20/18 A3005 RMK A01 T02000175  RH  090%=      5-min Rain = 0
KASU 261155Z 17005KT 20/18 A3006 RMK A01 T02000175  RH  090%=      5-min Rain = 0
KASU 261200Z 18004KT 20/18 A3006 RMK A01 T02000175  RH  090%=      5-min Rain = 0
KASU 261205Z 17004KT 20/17 A3006 RMK A01 T02000174  RH  089%=      5-min Rain = 0
KASU 261210Z 16004KT 20/18 A3006 RMK A01 T02010175  RH  089%=      5-min Rain = 0
KASU 261215Z 14003KT 20/18 A3006 RMK A01 T02020176  RH  089%=      5-min Rain = 0
KASU 261220Z 14003KT 20/18 A3007 RMK A01 T02030177  RH  089%=      5-min Rain = 0
KASU 261225Z 15003KT 21/18 A3007 RMK A01 T02050179  RH  089%=      5-min Rain = 0
KASU 261230Z 14002KT 21/18 A3007 RMK A01 T02080181  RH  089%=      5-min Rain = 0
KASU 261235Z 14002KT 21/18 A3008 RMK A01 T02110183  RH  089%=      5-min Rain = 0
KASU 261240Z 15003KT 21/18 A3008 RMK A01 T02120183  RH  088%=      5-min Rain = 0
KASU 261245Z 16003KT 21/18 A3008 RMK A01 T02140184  RH  088%=      5-min Rain = 0
KASU 261250Z 18004KT 21/18 A3009 RMK A01 T02120182  RH  087%=      5-min Rain = 0
KASU 261255Z 18003KT 21/18 A3009 RMK A01 T02130182  RH  087%=      5-min Rain = 0
KASU 261300Z 17002KT 21/18 A3009 RMK A01 T02130183  RH  087%=      5-min Rain = 0
KASU 261305Z 16002KT 21/18 A301 RMK A01 T02140183  RH  087%=      5-min Rain = 0
KASU 261310Z 17002KT 21/18 A301 RMK A01 T02140183  RH  087%=      5-min Rain = 0
KASU 261315Z 19004KT 22/18 A301 RMK A01 T02150184  RH  087%=      5-min Rain = 0
KASU 261320Z 20003KT 22/18 A301 RMK A01 T02160183  RH  086%=      5-min Rain = 0
KASU 261325Z 20003KT 22/18 A301 RMK A01 T02170183  RH  086%=      5-min Rain = 0
KASU 261330Z 19004KT 22/18 A301 RMK A01 T02160182  RH  085%=      5-min Rain = 0
KASU 261335Z 19005KT 22/18 A3011 RMK A01 T02170182  RH  085%=      5-min Rain = 0
KASU 261340Z 19005KT 22/18 A3011 RMK A01 T02180182  RH  084%=      5-min Rain = 0
KASU 261345Z 18005KT 22/18 A3011 RMK A01 T02190183  RH  084%=      5-min Rain = 0
KASU 261350Z 18004KT 22/18 A3012 RMK A01 T02200183  RH  084%=      5-min Rain = 0
KASU 261355Z 18004KT 22/18 A3012 RMK A01 T02200184  RH  084%=      5-min Rain = 0
KASU 261400Z 17004KT 22/18 A3013 RMK A01 T02210184  RH  084%=      5-min Rain = 0
KASU 261405Z 17004KT 22/18 A3013 RMK A01 T02210184  RH  084%=      5-min Rain = 0
KASU 261410Z 18005KT 22/18 A3013 RMK A01 T02210184  RH  084%=      5-min Rain = 0
KASU 261415Z 16005KT 22/18 A3013 RMK A01 T02220184  RH  084%=      5-min Rain = 0
KASU 261420Z 16005KT 22/18 A3013 RMK A01 T02210183  RH  083%=      5-min Rain = 0
KASU 261425Z 17005KT 22/18 A3013 RMK A01 T02220184  RH  083%=      5-min Rain = 0
KASU 261430Z 17005KT 22/18 A3014 RMK A01 T02220184  RH  083%=      5-min Rain = 0
KASU 261435Z 17005KT 22/18 A3014 RMK A01 T02230184  RH  083%=      5-min Rain = 0
KASU 261440Z 16003KT 22/19 A3014 RMK A01 T02240185  RH  083%=      5-min Rain = 0
KASU 261445Z 18004KT 23/19 A3014 RMK A01 T02250185  RH  083%=      5-min Rain = 0
KASU 261450Z 17004KT 23/19 A3014 RMK A01 T02250185  RH  082%=      5-min Rain = 0
KASU 261455Z 16004KT 23/19 A3014 RMK A01 T02250185  RH  082%=      5-min Rain = 0
KASU 261500Z 15005KT 23/19 A3014 RMK A01 T02270186  RH  082%=      5-min Rain = 0
KASU 261505Z 15005KT 23/19 A3014 RMK A01 T02270185  RH  082%=      5-min Rain = 0
KASU 261510Z 14006KT 23/19 A3014 RMK A01 T02300187  RH  081%=      5-min Rain = 0
KASU 261515Z 13006KT 23/19 A3014 RMK A01 T02320187  RH  080%=      5-min Rain = 0
KASU 261520Z 12006KT 23/19 A3014 RMK A01 T02310185  RH  079%=      5-min Rain = 0
KASU 261525Z 13006KT 23/19 A3015 RMK A01 T02310185  RH  080%=      5-min Rain = 0
KASU 261530Z 13007KT 23/19 A3015 RMK A01 T02320185  RH  079%=      5-min Rain = 0
KASU 261535Z 12006KT 23/19 A3015 RMK A01 T02320185  RH  079%=      5-min Rain = 0
KASU 261540Z 13008KT 23/19 A3015 RMK A01 T02320185  RH  079%=      5-min Rain = 0
KASU 261545Z 13006KT 24/19 A3015 RMK A01 T02350186  RH  078%=      5-min Rain = 0
KASU 261550Z 13007KT 24/19 A3015 RMK A01 T02350185  RH  078%=      5-min Rain = 0
KASU 261555Z 13007KT 24/19 A3015 RMK A01 T02350185  RH  077%=      5-min Rain = 0
KASU 261600Z 13007KT 24/19 A3015 RMK A01 T02370185  RH  077%=      5-min Rain = 0
KASU 261605Z 12008KT 24/19 A3015 RMK A01 T02400185  RH  076%=      5-min Rain = 0
KASU 261610Z 13007KT 24/19 A3015 RMK A01 T02420187  RH  075%=      5-min Rain = 0
KASU 261615Z 12008KT 24/19 A3015 RMK A01 T02440187  RH  074%=      5-min Rain = 0
KASU 261620Z 14007KT 25/19 A3015 RMK A01 T02470188  RH  074%=      5-min Rain = 0
KASU 261625Z 13008KT 25/19 A3015 RMK A01 T02480187  RH  073%=      5-min Rain = 0
KASU 261630Z 15008KT 25/19 A3015 RMK A01 T02500188  RH  072%=      5-min Rain = 0
KASU 261635Z 15009KT 25/19 A3015 RMK A01 T02530189  RH  071%=      5-min Rain = 0
KASU 261640Z 14008KT 26/19 A3015 RMK A01 T02560189  RH  070%=      5-min Rain = 0
KASU 261645Z 14009KT 26/19 A3015 RMK A01 T02570188  RH  069%=      5-min Rain = 0
KASU 261650Z 14008KT 26/19 A3015 RMK A01 T02630190  RH  068%=      5-min Rain = 0
KASU 261655Z 15007KT 27/19 A3015 RMK A01 T02700194  RH  067%=      5-min Rain = 0
KASU 261700Z 15009G14KT 27/19 A3015 RMK A01 T02700191  RH  066%=      5-min Rain = 0
KASU 261705Z 16008KT 27/19 A3015 RMK A01 T02660190  RH  066%=      5-min Rain = 0
KASU 261710Z 16009KT 27/19 A3015 RMK A01 T02670188  RH  066%=      5-min Rain = 0
KASU 261715Z 16007KT 27/19 A3015 RMK A01 T02670189  RH  066%=      5-min Rain = 0
KASU 261720Z 15009KT 27/19 A3015 RMK A01 T02690191  RH  066%=      5-min Rain = 0
KASU 261725Z 16007G12KT 27/19 A3015 RMK A01 T02730189  RH  064%=      5-min Rain = 0
KASU 261730Z 17007KT 27/19 A3015 RMK A01 T02730189  RH  064%=      5-min Rain = 0
KASU 261735Z 14009KT 27/19 A3015 RMK A01 T02730191  RH  064%=      5-min Rain = 0
KASU 261740Z 14007KT 27/19 A3015 RMK A01 T02660187  RH  066%=      5-min Rain = 0
KASU 261745Z 13007KT 27/19 A3015 RMK A01 T02650188  RH  066%=      5-min Rain = 0
KASU 261750Z 11008KT 27/19 A3014 RMK A01 T02690190  RH  066%=      5-min Rain = 0
KASU 261755Z 11008KT 27/19 A3014 RMK A01 T02740193  RH  065%=      5-min Rain = 0
KASU 261800Z 09008KT 27/19 A3014 RMK A01 T02730192  RH  065%=      5-min Rain = 0
KASU 261805Z 10008KT 27/19 A3014 RMK A01 T02720189  RH  064%=      5-min Rain = 0
KASU 261810Z 09006KT 27/19 A3014 RMK A01 T02690189  RH  065%=      5-min Rain = 0
KASU 261815Z 11006KT 27/19 A3014 RMK A01 T02700191  RH  065%=      5-min Rain = 0
KASU 261820Z 12006KT 28/19 A3013 RMK A01 T02790189  RH  061%=      5-min Rain = 0
KASU 261825Z 15007G13KT 28/19 A3013 RMK A01 T02840189  RH  060%=      5-min Rain = 0
KASU 261830Z 13007KT 28/18 A3013 RMK A01 T02820184  RH  058%=      5-min Rain = 0
KASU 261835Z 17005KT 28/18 A3013 RMK A01 T02840184  RH  057%=      5-min Rain = 0
KASU 261840Z 16004G9KT 29/19 A3012 RMK A01 T02870185  RH  057%=      5-min Rain = 0
KASU 261845Z 15005KT 29/19 A3012 RMK A01 T02860187  RH  058%=      5-min Rain = 0
KASU 261850Z 16005KT 29/19 A3012 RMK A01 T02890186  RH  057%=      5-min Rain = 0
KASU 261855Z 18006KT 28/18 A3012 RMK A01 T02830182  RH  057%=      5-min Rain = 0
KASU 261900Z 17005KT 29/19 A3012 RMK A01 T02890185  RH  056%=      5-min Rain = 0
KASU 261905Z 14005KT 29/18 A3012 RMK A01 T02930182  RH  054%=      5-min Rain = 0
KASU 261910Z 14006KT 30/18 A3011 RMK A01 T02970183  RH  053%=      5-min Rain = 0
KASU 261915Z 16007KT 30/18 A3011 RMK A01 T02960178  RH  052%=      5-min Rain = 0
KASU 261920Z 14007G12KT 30/18 A3011 RMK A01 T02970179  RH  052%=      5-min Rain = 0
KASU 261925Z 15007G12KT 30/18 A3011 RMK A01 T02970179  RH  052%=      5-min Rain = 0
KASU 261930Z 13009KT 30/18 A3011 RMK A01 T03010180  RH  051%=      5-min Rain = 0
KASU 261935Z 15009KT 30/18 A3011 RMK A01 T02980176  RH  050%=      5-min Rain = 0
KASU 261940Z 16008G13KT 30/18 A301 RMK A01 T03020179  RH  050%=      5-min Rain = 0
KASU 261945Z 16010KT 30/18 A301 RMK A01 T03020178  RH  050%=      5-min Rain = 0
KASU 261950Z 16009G14KT 30/18 A301 RMK A01 T03020179  RH  050%=      5-min Rain = 0
KASU 261955Z 16008KT 30/18 A301 RMK A01 T03020179  RH  050%=      5-min Rain = 0
KASU 262000Z 14009KT 30/18 A301 RMK A01 T03010178  RH  050%=      5-min Rain = 0
KASU 262005Z 13006KT 30/18 A3009 RMK A01 T03010177  RH  050%=      5-min Rain = 0
KASU 262010Z 14010KT 30/18 A3009 RMK A01 T03040179  RH  050%=      5-min Rain = 0
KASU 262015Z 15008KT 30/17 A3009 RMK A01 T03000173  RH  049%=      5-min Rain = 0
KASU 262020Z 18008KT 30/18 A3009 RMK A01 T03020178  RH  050%=      5-min Rain = 0
KASU 262025Z 17008KT 31/18 A3009 RMK A01 T03080182  RH  050%=      5-min Rain = 0
KASU 262030Z 15008G13KT 31/18 A3009 RMK A01 T03060179  RH  049%=      5-min Rain = 0
KASU 262035Z 14007G12KT 31/18 A3009 RMK A01 T03070179  RH  049%=      5-min Rain = 0
KASU 262040Z 15009KT 31/18 A3008 RMK A01 T03080179  RH  049%=      5-min Rain = 0
KASU 262045Z 13007KT 31/18 A3008 RMK A01 T03100181  RH  049%=      5-min Rain = 0
KASU 262050Z 15009KT 31/18 A3008 RMK A01 T03120180  RH  048%=      5-min Rain = 0
KASU 262055Z 14010KT 31/18 A3008 RMK A01 T03130178  RH  047%=      5-min Rain = 0
KASU 262100Z 15009KT 31/18 A3008 RMK A01 T03120177  RH  047%=      5-min Rain = 0
KASU 262105Z 16008KT 31/18 A3008 RMK A01 T03130178  RH  047%=      5-min Rain = 0
KASU 262110Z 14008G13KT 32/18 A3008 RMK A01 T03150180  RH  047%=      5-min Rain = 0
KASU 262115Z 15007KT 31/18 A3007 RMK A01 T03140179  RH  047%=      5-min Rain = 0
KASU 262120Z 13007KT 31/18 A3007 RMK A01 T03140183  RH  048%=      5-min Rain = 0
KASU 262125Z 14009G14KT 32/19 A3007 RMK A01 T03170185  RH  048%=      5-min Rain = 0
KASU 262130Z 13009KT 31/18 A3007 RMK A01 T03120183  RH  049%=      5-min Rain = 0
KASU 262135Z 13009G14KT 31/19 A3007 RMK A01 T03140189  RH  050%=      5-min Rain = 0
KASU 262140Z 14008KT 31/18 A3007 RMK A01 T03130183  RH  049%=      5-min Rain = 0
KASU 262145Z 14008KT 31/18 A3007 RMK A01 T03120184  RH  049%=      5-min Rain = 0
KASU 262150Z 12009KT 31/19 A3007 RMK A01 T03140186  RH  049%=      5-min Rain = 0
KASU 262155Z 11008KT 30/18 A3007 RMK A01 T03040181  RH  051%=      5-min Rain = 0
KASU 262200Z 10008G15KT 31/18 A3006 RMK A01 T03090184  RH  050%=      5-min Rain = 0
KASU 262205Z 13010KT 31/18 A3007 RMK A01 T03110183  RH  049%=      5-min Rain = 0
KASU 262210Z 12009KT 30/18 A3007 RMK A01 T03010183  RH  052%=      5-min Rain = 0
KASU 262215Z 11007KT 31/19 A3007 RMK A01 T03050188  RH  053%=      5-min Rain = 0
KASU 262220Z 10008G13KT 30/18 A3006 RMK A01 T03030184  RH  052%=      5-min Rain = 0
KASU 262225Z 12007G12KT 30/18 A3006 RMK A01 T02950184  RH  054%=      5-min Rain = 0
KASU 262230Z 13007KT 29/19 A3006 RMK A01 T02900186  RH  056%=      5-min Rain = 0
KASU 262235Z 13009KT 30/19 A3006 RMK A01 T02970187  RH  055%=      5-min Rain = 0
KASU 262240Z 14008KT 31/18 A3006 RMK A01 T03060184  RH  051%=      5-min Rain = 0
KASU 262245Z 13006KT 31/19 A3006 RMK A01 T03070186  RH  051%=      5-min Rain = 0
KASU 262250Z 14007KT 31/19 A3006 RMK A01 T03120186  RH  050%=      5-min Rain = 0
KASU 262255Z 14009KT 31/18 A3006 RMK A01 T03100181  RH  049%=      5-min Rain = 0
KASU 262300Z 14009KT 31/18 A3006 RMK A01 T03080179  RH  049%=      5-min Rain = 0
KASU 262305Z 14009KT 31/18 A3006 RMK A01 T03060179  RH  049%=      5-min Rain = 0
KASU 262310Z 15009G14KT 30/18 A3006 RMK A01 T03000176  RH  050%=      5-min Rain = 0
KASU 262315Z 14008KT 30/18 A3006 RMK A01 T03030178  RH  050%=      5-min Rain = 0
KASU 262320Z 14008KT 31/18 A3006 RMK A01 T03070183  RH  050%=      5-min Rain = 0
KASU 262325Z 12009KT 30/18 A3006 RMK A01 T03010183  RH  052%=      5-min Rain = 0
KASU 262330Z 10010KT 30/18 A3006 RMK A01 T02970181  RH  052%=      5-min Rain = 0
KASU 262335Z 12008KT 29/18 A3006 RMK A01 T02940182  RH  054%=      5-min Rain = 0
KASU 262340Z 12009G14KT 29/18 A3006 RMK A01 T02940180  RH  053%=      5-min Rain = 0
KASU 262345Z 11010G15KT 30/18 A3006 RMK A01 T02960179  RH  052%=      5-min Rain = 0
KASU 262350Z 13010KT 30/18 A3006 RMK A01 T03010182  RH  052%=      5-min Rain = 0
KASU 262355Z 13010KT 30/18 A3006 RMK A01 T03000181  RH  051%=      5-min Rain = 0
KASU 270000Z 12009KT 30/18 A3006 RMK A01 T03000182  RH  052%=      5-min Rain = 0
KASU 270005Z 12008KT 30/18 A3006 RMK A01 T02970180  RH  052%=      5-min Rain = 0
KASU 270010Z 11008KT 29/18 A3006 RMK A01 T02910181  RH  054%=      5-min Rain = 0
KASU 270015Z 12007KT 29/18 A3006 RMK A01 T02910182  RH  055%=      5-min Rain = 0
KASU 270020Z 13009KT 30/18 A3006 RMK A01 T02950181  RH  053%=      5-min Rain = 0
KASU 270025Z 13008KT 30/18 A3006 RMK A01 T02960183  RH  053%=      5-min Rain = 0
KASU 270030Z 13007KT 29/18 A3006 RMK A01 T02910181  RH  054%=      5-min Rain = 0
KASU 270035Z 13007KT 29/18 A3006 RMK A01 T02870183  RH  056%=      5-min Rain = 0
KASU 270040Z 14007KT 29/18 A3006 RMK A01 T02850182  RH  057%=      5-min Rain = 0
KASU 270045Z 13008KT 28/18 A3007 RMK A01 T02820180  RH  057%=      5-min Rain = 0
KASU 270050Z 14006KT 28/18 A3007 RMK A01 T02840180  RH  056%=      5-min Rain = 0
KASU 270055Z 13007KT 28/18 A3007 RMK A01 T02840180  RH  056%=      5-min Rain = 0
KASU 270100Z 14006KT 28/18 A3007 RMK A01 T02820180  RH  057%=      5-min Rain = 0
KASU 270105Z 13006KT 28/18 A3007 RMK A01 T02810180  RH  057%=      5-min Rain = 0
KASU 270110Z 13007KT 28/18 A3007 RMK A01 T02790179  RH  057%=      5-min Rain = 0
KASU 270115Z 14005KT 28/18 A3007 RMK A01 T02800180  RH  057%=      5-min Rain = 0
KASU 270120Z 14004KT 28/18 A3007 RMK A01 T02780183  RH  059%=      5-min Rain = 0
KASU 270125Z 14004KT 28/18 A3007 RMK A01 T02750184  RH  061%=      5-min Rain = 0
KASU 270130Z 14005KT 27/18 A3007 RMK A01 T02720183  RH  061%=      5-min Rain = 0
KASU 270135Z 14004KT 27/18 A3007 RMK A01 T02700184  RH  063%=      5-min Rain = 0
KASU 270140Z 14004KT 27/19 A3008 RMK A01 T02660185  RH  065%=      5-min Rain = 0
KASU 270145Z 14005KT 26/19 A3008 RMK A01 T02620186  RH  067%=      5-min Rain = 0
KASU 270150Z 14004KT 26/19 A3008 RMK A01 T02580185  RH  068%=      5-min Rain = 0
KASU 270155Z 13004KT 26/19 A3008 RMK A01 T02560187  RH  069%=      5-min Rain = 0
KASU 270200Z 13004KT 25/19 A3008 RMK A01 T02540185  RH  070%=      5-min Rain = 0
KASU 270205Z 13004KT 25/19 A3008 RMK A01 T02530185  RH  070%=      5-min Rain = 0
KASU 270210Z 12004KT 25/19 A3008 RMK A01 T02500185  RH  071%=      5-min Rain = 0
KASU 270215Z 11004KT 25/18 A3008 RMK A01 T02470184  RH  072%=      5-min Rain = 0
KASU 270220Z 11004KT 25/19 A3008 RMK A01 T02450185  RH  073%=      5-min Rain = 0
KASU 270225Z 10004KT 24/18 A3009 RMK A01 T02430184  RH  074%=      5-min Rain = 0
KASU 270230Z 10004KT 24/18 A3009 RMK A01 T02430183  RH  073%=      5-min Rain = 0
KASU 270235Z 10004KT 24/18 A3009 RMK A01 T02410184  RH  074%=      5-min Rain = 0
KASU 270240Z 11004KT 24/18 A3009 RMK A01 T02400184  RH  075%=      5-min Rain = 0
KASU 270245Z 11004KT 24/18 A3009 RMK A01 T02400183  RH  074%=      5-min Rain = 0
KASU 270250Z 10004KT 24/18 A3009 RMK A01 T02400182  RH  074%=      5-min Rain = 0
KASU 270255Z 09004KT 24/18 A3009 RMK A01 T02390182  RH  075%=      5-min Rain = 0
KASU 270300Z 09005KT 24/18 A3009 RMK A01 T02360182  RH  076%=      5-min Rain = 0
KASU 270305Z 08005KT 24/18 A3009 RMK A01 T02360182  RH  076%=      5-min Rain = 0
KASU 270310Z 09006KT 23/18 A301 RMK A01 T02340182  RH  077%=      5-min Rain = 0
KASU 270315Z 10004KT 23/18 A301 RMK A01 T02330182  RH  077%=      5-min Rain = 0
KASU 270320Z 10004KT 23/18 A3011 RMK A01 T02330181  RH  076%=      5-min Rain = 0
KASU 270325Z 11003KT 24/18 A3011 RMK A01 T02350180  RH  075%=      5-min Rain = 0
KASU 270330Z 10003KT 24/18 A3011 RMK A01 T02380179  RH  074%=      5-min Rain = 0
KASU 270335Z 10003KT 24/18 A3011 RMK A01 T02380179  RH  073%=      5-min Rain = 0
KASU 270340Z 09004KT 24/18 A3012 RMK A01 T02380178  RH  073%=      5-min Rain = 0
KASU 270345Z 09004KT 24/18 A3012 RMK A01 T02370179  RH  073%=      5-min Rain = 0
KASU 270350Z 09004KT 24/18 A3012 RMK A01 T02370179  RH  074%=      5-min Rain = 0
KASU 270355Z 09004KT 24/18 A3013 RMK A01 T02360180  RH  075%=      5-min Rain = 0
KASU 270400Z 08005KT 23/18 A3013 RMK A01 T02340181  RH  076%=      5-min Rain = 0
KASU 270405Z 09006KT 23/18 A3014 RMK A01 T02320184  RH  079%=      5-min Rain = 0
KASU 270410Z 11007KT 24/18 A3014 RMK A01 T02360184  RH  077%=      5-min Rain = 0
KASU 270415Z 13006KT 24/18 A3015 RMK A01 T02440182  RH  072%=      5-min Rain = 0
KASU 270420Z 13008KT 25/18 A3015 RMK A01 T02480182  RH  070%=      5-min Rain = 0
KASU 270425Z 13008KT 25/18 A3015 RMK A01 T02530181  RH  068%=      5-min Rain = 0
KASU 270430Z 14010KT 26/18 A3015 RMK A01 T02550180  RH  067%=      5-min Rain = 0
KASU 270435Z 14010G15KT 26/18 A3015 RMK A01 T02560180  RH  066%=      5-min Rain = 0
KASU 270440Z 14009G14KT 26/18 A3016 RMK A01 T02560180  RH  066%=      5-min Rain = 0
KASU 270445Z 13009G14KT 26/18 A3016 RMK A01 T02560180  RH  066%=      5-min Rain = 0
KASU 270450Z 14009KT 25/18 A3016 RMK A01 T02540180  RH  067%=      5-min Rain = 0
KASU 270455Z 13008G13KT 25/18 A3016 RMK A01 T02540180  RH  067%=      5-min Rain = 0

Page generated in 0.0119 seconds.